Latest Weather Observations for Tuggeranong

IDN60901

Issued at 10:11 am EDT Sunday 19 November 2017 (issued every 10 minutes, with the page automatically refreshed every 10 minutes)

About weather observations | Map of Canberra area stations | Latest observations for Canberra area | Other Formats
Station Details ID: 070339 Name: TUGGERANONG (ISABELLA PLAINS) AWS Lat: -35.42 Lon: 149.09 Height: 586.7 m
Data from the previous 72 hours. | See also: Recent months at Tuggeranong
Date/Time
EDT
Temp
°C
App
Temp
°C
Dew
Point
°C
Rel
Hum
%
Delta-T
°C
Wind Press
QNH
hPa
Press
MSL
hPa
Rain since
9am
mm
Dir  Spd
km/h
Gust
km/h
Spd
kts
Gust
kts
19/10:00am 18.5 15.7 7.0 47 5.9 ESE 11 20 6 11 1024.6 1023.0 0.0
19/09:30am 18.2 14.8 5.8 44 6.3 ENE 13 20 7 11 1024.8 1023.1 0.0
19/09:00am 17.1 13.8 6.6 50 5.3 ESE 13 20 7 11 1024.8 1023.1 1.6
19/08:30am 16.5 13.4 7.2 54 4.8 ESE 13 20 7 11 1024.6 1023.0 1.6
19/08:00am 15.9 13.4 8.2 60 4.0 SSE 11 17 6 9 1024.6 1023.0 1.6
19/07:30am 15.2 12.9 8.9 66 3.3 SE 11 19 6 10 1024.5 1022.9 1.6
19/07:00am 14.6 12.7 9.2 70 2.8 SE 9 15 5 8 1024.2 1022.6 1.6
19/06:30am 13.7 12.2 9.0 73 2.5 SE 7 13 4 7 1024.1 1022.5 1.6
19/06:00am 13.1 11.9 9.4 78 1.9 S 6 9 3 5 1023.9 1022.2 1.6
19/05:30am 12.9 12.8 9.5 80 1.8 CALM 0 0 0 0 1023.7 1022.0 1.6
19/05:00am 12.9 12.8 9.5 80 1.8 CALM 0 0 0 0 1023.3 1021.6 1.6
19/04:30am 13.5 12.0 9.2 75 2.3 ESE 7 9 4 5 1022.9 1021.2 1.6
19/04:00am 13.8 12.0 9.6 76 2.2 SE 9 11 5 6 1023.0 1021.3 1.6
19/03:30am 13.8 12.6 10.2 79 1.9 SE 7 7 4 4 1022.9 1021.2 1.6
19/03:00am 13.8 14.0 10.6 81 1.7 CALM 0 0 0 0 1023.1 1021.4 1.6
19/02:30am 14.1 13.8 10.1 77 2.1 SSE 2 7 1 4 1023.2 1021.5 1.6
19/02:00am 14.1 12.7 9.7 75 2.3 SSE 7 9 4 5 1023.1 1021.4 1.6
19/01:30am 14.1 13.2 10.5 79 1.9 S 6 9 3 5 1023.0 1021.3 1.6
19/01:00am 14.2 12.9 10.0 76 2.2 SE 7 11 4 6 1023.2 1021.5 1.6
19/12:30am 14.5 12.9 10.1 75 2.4 SE 9 11 5 6 1023.3 1021.6 1.6
19/12:00am 14.5 12.9 10.1 75 2.4 SE 9 11 5 6 1023.3 1021.6 1.6
 
Date/Time
EDT
Temp
°C
App
Temp
°C
Dew
Point
°C
Rel
Hum
%
Delta-T
°C
Wind Press
QNH
hPa
Press
MSL
hPa
Rain since
9am
mm
Dir  Spd
km/h
Gust
km/h
Spd
kts
Gust
kts
18/11:30pm 14.1 14.2 10.3 78 2.0 CALM 0 9 0 5 1023.1 1021.4 1.6
18/11:00pm 14.4 12.4 10.0 75 2.3 ESE 11 17 6 9 1022.9 1021.2 1.6
18/10:30pm 14.6 13.4 10.4 76 2.3 SE 7 13 4 7 1022.7 1021.1 1.6
18/10:00pm 15.0 13.5 10.6 75 2.4 ESE 9 13 5 7 1022.7 1021.1 1.6
18/09:30pm 15.3 14.2 10.7 74 2.5 ESE 7 11 4 6 1022.5 1020.8 1.6
18/09:00pm 15.5 14.0 10.7 73 2.6 ESE 9 13 5 7 1022.0 1020.3 1.6
18/08:30pm 16.0 14.2 10.7 71 2.9 E 11 17 6 9 1021.7 1020.0 1.6
18/08:00pm 16.6 13.7 10.9 69 3.1 E 17 24 9 13 1021.2 1019.5 1.6
18/07:30pm 17.0 14.9 11.1 68 3.3 E 13 17 7 9 1020.8 1019.1 1.6
18/07:00pm 17.5 15.0 11.1 66 3.6 E 15 24 8 13 1020.5 1018.8 1.6
18/06:30pm 17.9 15.6 11.9 68 3.4 E 15 28 8 15 1020.1 1018.4 1.6
18/06:00pm 17.3 16.7 13.6 79 2.1 ESE 9 13 5 7 1020.1 1018.4 1.6
18/05:30pm 16.5 15.6 13.8 84 1.6 ESE 11 15 6 8 1020.3 1018.6 1.6
18/05:00pm 16.3 13.8 13.4 83 1.7 E 19 26 10 14 1020.5 1018.8 1.6
18/04:30pm 16.4 15.7 14.2 87 1.3 ESE 11 22 6 12 1020.5 1018.8 1.6
18/04:00pm 17.8 16.1 12.5 71 3.0 ESE 13 20 7 11 1020.4 1018.7 1.2
18/03:30pm 17.8 14.4 12.5 71 3.0 E 22 35 12 19 1020.4 1018.7 1.2
18/03:00pm 17.6 14.7 12.9 74 2.7 ENE 20 33 11 18 1020.6 1018.9 1.2
18/02:30pm 17.4 14.2 13.1 76 2.5 E 22 35 12 19 1020.6 1018.9 1.2
18/02:00pm 17.8 16.1 14.7 82 1.8 ENE 17 30 9 16 1020.6 1018.9 1.0
18/01:30pm 17.0 14.8 13.3 79 2.1 ENE 17 24 9 13 1020.7 1019.0 1.0
18/01:00pm 17.4 15.0 12.5 73 2.8 ENE 17 26 9 14 1020.7 1019.0 1.0
18/12:30pm 17.9 16.7 12.8 72 2.9 E 11 26 6 14 1020.7 1019.0 0.8
18/12:00pm 17.0 16.3 13.3 79 2.1 SE 9 19 5 10 1020.8 1019.1 0.8
18/11:30am 16.3 14.8 13.2 82 1.8 ESE 13 19 7 10 1020.8 1019.1 0.8
18/11:00am 16.5 16.6 12.7 78 2.2 ENE 4 26 2 14 1020.8 1019.1 0.8
18/10:30am 16.3 16.0 13.2 82 1.8 S 7 11 4 6 1020.6 1018.9 0.8
18/10:00am 15.4 15.0 12.5 83 1.6 E 6 9 3 5 1020.7 1019.0 0.8
18/09:30am 15.8 14.0 12.0 78 2.1 E 13 24 7 13 1020.8 1019.1 0.0
18/09:00am 15.8 14.4 12.2 79 2.0 ESE 11 19 6 10 1020.7 1019.0 7.4
18/08:30am 15.6 14.7 12.5 82 1.8 ESE 9 13 5 7 1020.7 1019.0 7.4
18/08:00am 15.7 14.6 12.1 79 2.0 E 9 15 5 8 1020.5 1018.8 7.4
18/07:30am 15.9 15.0 11.5 75 2.4 E 7 11 4 6 1020.2 1018.5 7.2
18/07:00am 15.7 15.9 11.9 78 2.1 SE 2 7 1 4 1020.0 1018.3 7.2
18/06:30am 15.4 16.1 12.2 81 1.8 CALM 0 0 0 0 1019.9 1018.2 7.2
18/06:00am 15.4 14.6 11.8 79 2.0 ESE 7 11 4 6 1019.7 1018.0 7.2
18/05:30am 15.4 15.6 12.0 80 1.9 ENE 2 7 1 4 1019.3 1017.5 7.2
18/05:00am 15.4 14.6 11.8 79 2.0 E 7 11 4 6 1018.8 1017.1 7.2
18/04:30am 15.4 14.9 12.0 80 1.9 ESE 6 9 3 5 1018.7 1017.0 7.2
18/04:00am 15.4 14.8 12.2 81 1.8 ESE 7 11 4 6 1018.6 1016.9 7.2
18/03:30am 15.5 14.9 12.3 81 1.8 E 7 13 4 7 1018.9 1017.2 7.2
18/03:00am 15.3 15.5 13.0 86 1.3 NNE 4 9 2 5 1018.9 1017.2 7.2
18/02:30am 15.0 15.3 14.4 96 0.4 SSE 6 11 3 6 1019.3 1017.5 7.2
18/02:00am 14.7 16.0 14.1 96 0.3 CALM 0 0 0 0 1019.4 1017.6 7.2
18/01:30am 15.2 16.3 13.6 90 0.9 CALM 0 0 0 0 1019.7 1018.0 7.2
18/01:00am 15.8 15.0 12.9 83 1.6 ENE 9 15 5 8 1019.9 1018.2 7.0
18/12:30am 16.1 15.6 12.7 80 1.9 ENE 7 13 4 7 1020.0 1018.3 7.0
18/12:00am 15.9 16.1 13.2 84 1.5 E 4 11 2 6 1020.0 1018.3 7.0
 
Date/Time
EDT
Temp
°C
App
Temp
°C
Dew
Point
°C
Rel
Hum
%
Delta-T
°C
Wind Press
QNH
hPa
Press
MSL
hPa
Rain since
9am
mm
Dir  Spd
km/h
Gust
km/h
Spd
kts
Gust
kts
17/11:30pm 16.0 16.6 13.1 83 1.7 ENE 2 6 1 3 1020.1 1018.4 7.0
17/11:00pm 16.5 15.6 12.7 78 2.2 E 9 13 5 7 1020.1 1018.4 6.8
17/10:30pm 16.6 16.3 12.6 77 2.3 SE 6 9 3 5 1020.1 1018.4 6.8
17/10:00pm 16.7 17.1 12.5 76 2.4 SE 2 6 1 3 1020.1 1018.4 6.8
17/09:30pm 16.7 16.2 12.5 76 2.4 SSE 7 11 4 6 1019.5 1017.7 6.8
17/09:00pm 17.1 15.7 12.2 73 2.8 SE 11 15 6 8 1018.9 1017.2 6.8
17/08:30pm 17.5 14.4 12.2 71 3.0 ESE 20 28 11 15 1018.6 1016.9 6.8
17/08:00pm 17.5 15.5 12.6 73 2.8 ENE 15 24 8 13 1018.2 1016.5 6.8
17/07:30pm 17.8 16.5 13.7 77 2.4 ENE 13 24 7 13 1018.2 1016.5 6.8
17/07:00pm 17.9 17.1 14.0 78 2.3 E 11 19 6 10 1017.6 1015.8 6.8
17/06:30pm 18.1 16.8 13.6 75 2.6 ESE 13 24 7 13 1016.9 1015.2 6.8
17/06:00pm 18.2 17.0 13.9 76 2.5 E 13 20 7 11 1017.0 1015.3 6.8
17/05:30pm 18.6 19.3 14.5 77 2.4 ENE 4 19 2 10 1016.8 1015.1 6.8
17/05:00pm 17.9 18.6 15.7 87 1.3 SSE 6 13 3 7 1016.6 1014.8 6.8
17/04:30pm 17.3 17.6 16.0 92 0.8 SW 9 13 5 7 1016.6 1014.8 6.6
17/04:00pm 16.3 16.7 15.3 94 0.6 N 7 13 4 7 1016.6 1014.8 6.6
17/03:42pm 16.6 12.4 12.4 76 2.4 N 26 52 14 28 1016.8 1015.1 3.2
17/03:30pm 20.2 19.1 15.2 73 3.0 NE 15 24 8 13 1016.3 1014.5 2.4
17/03:00pm 17.2 16.0 12.7 75 2.6 NE 11 20 6 11 1016.8 1015.1 2.2
17/02:30pm 21.9 20.1 12.2 54 5.6 NE 13 20 7 11 1016.3 1014.5 0.0
17/02:00pm 22.4 20.3 12.4 53 5.8 E 15 24 8 13 1016.4 1014.6 0.0
17/01:30pm 22.6 20.7 13.1 55 5.6 E 15 24 8 13 1016.5 1014.7 0.0
17/01:00pm 21.9 20.8 13.0 57 5.2 NE 11 22 6 12 1017.0 1015.3 0.0
17/12:30pm 21.0 19.5 13.2 61 4.6 E 13 22 7 12 1017.6 1015.8 0.0
17/12:00pm 20.7 19.1 12.7 60 4.6 NE 13 20 7 11 1018.0 1016.2 0.0
17/11:30am 20.5 19.1 13.5 64 4.1 ENE 13 20 7 11 1018.1 1016.3 0.0
17/11:00am 19.7 18.2 13.2 66 3.8 ENE 13 20 7 11 1018.1 1016.3 0.0
17/10:30am 19.9 18.6 13.6 67 3.7 NE 13 19 7 10 1018.1 1016.3 0.0
17/10:00am 18.7 17.3 13.3 71 3.1 ENE 13 20 7 11 1018.1 1016.3 0.0
17/09:30am 18.6 16.5 13.5 72 3.0 NE 17 22 9 12 1018.1 1016.3 0.0
17/09:00am 18.1 16.7 13.4 74 2.7 ENE 13 20 7 11 1018.3 1016.6 2.2
17/08:30am 17.4 16.0 13.3 77 2.4 ENE 13 17 7 9 1018.2 1016.5 2.2
17/08:00am 16.8 15.7 13.1 79 2.1 ENE 11 19 6 10 1018.0 1016.2 2.2
17/07:30am 16.0 17.1 13.5 85 1.4 CALM 0 0 0 0 1017.8 1016.0 2.2
17/07:00am 15.5 16.7 13.7 89 1.0 CALM 0 6 0 3 1017.7 1015.9 2.2
17/06:30am 14.9 15.6 13.4 91 0.9 E 2 9 1 5 1017.5 1015.7 2.2
17/06:00am 14.8 16.0 13.7 93 0.6 CALM 0 0 0 0 1016.9 1015.2 2.2
17/05:30am 15.2 16.3 13.4 89 1.0 CALM 0 0 0 0 1016.4 1014.6 2.2
17/05:00am 15.6 16.6 13.1 85 1.4 CALM 0 0 0 0 1016.2 1014.4 2.2
17/04:30am 16.0 16.6 13.1 83 1.7 ENE 2 7 1 4 1016.2 1014.4 2.2
17/04:00am 16.2 15.5 13.3 83 1.7 NE 9 13 5 7 1016.3 1014.5 2.2
17/03:30am 16.1 15.8 13.2 83 1.7 NNE 7 11 4 6 1016.3 1014.5 2.2
17/03:00am 16.2 14.8 13.5 84 1.6 ENE 13 19 7 10 1016.0 1014.2 2.2
17/02:30am 16.3 15.7 13.4 83 1.7 NE 9 15 5 8 1016.2 1014.4 2.2
17/02:00am 16.3 16.6 13.4 83 1.7 NE 4 9 2 5 1016.4 1014.6 2.2
17/01:30am 16.3 16.6 13.4 83 1.7 NE 4 9 2 5 1016.7 1015.0 2.2
17/01:00am 16.4 17.4 13.3 82 1.8 CALM 0 6 0 3 1016.8 1015.1 2.2
17/12:30am 16.4 16.0 13.1 81 1.9 E 7 11 4 6 1016.7 1015.0 2.2
17/12:00am 16.5 16.2 13.4 82 1.8 E 7 11 4 6 1016.8 1015.1 2.2
 
Date/Time
EDT
Temp
°C
App
Temp
°C
Dew
Point
°C
Rel
Hum
%
Delta-T
°C
Wind Press
QNH
hPa
Press
MSL
hPa
Rain since
9am
mm
Dir  Spd
km/h
Gust
km/h
Spd
kts
Gust
kts
16/11:30pm 15.8 16.9 13.6 87 1.3 CALM 0 0 0 0 1017.1 1015.4 2.2
16/11:00pm 15.9 16.8 13.9 88 1.2 NE 2 7 1 4 1016.9 1015.2 2.2
16/10:30pm 15.6 16.8 13.8 89 1.0 CALM 0 0 0 0 1016.9 1015.2 2.2
16/10:00pm 15.7 17.0 14.1 90 0.9 CALM 0 0 0 0 1016.9 1015.2 2.2
16/09:30pm 15.6 15.7 13.8 89 1.0 SSE 6 11 3 6 1016.8 1015.1 2.2
16/09:00pm 15.1 15.4 13.5 90 0.9 SW 4 7 2 4 1016.6 1014.8 2.2
16/08:30pm 15.4 15.1 13.2 87 1.3 WSW 7 11 4 6 1015.9 1014.1 2.2
16/08:00pm 16.3 15.6 13.2 82 1.8 ESE 9 13 5 7 1015.1 1013.4 2.2
16/07:30pm 16.8 18.2 14.3 85 1.5 CALM 0 0 0 0 1015.7 1013.9 2.2
16/07:00pm 16.9 18.2 14.2 84 1.6 CALM 0 0 0 0 1015.8 1014.0 2.2
16/06:30pm 17.2 17.4 14.1 82 1.8 E 6 9 3 5 1015.4 1013.7 2.2
16/06:00pm 17.3 17.6 14.4 83 1.7 SE 6 9 3 5 1015.4 1013.7 2.2
16/05:30pm 17.2 18.4 13.9 81 1.9 CALM 0 0 0 0 1015.7 1013.9 2.2
16/05:00pm 17.2 18.2 14.3 83 1.7 WNW 2 7 1 4 1015.7 1013.9 2.2
16/04:30pm 17.1 17.9 14.9 87 1.3 NNW 4 7 2 4 1015.5 1013.8 2.0
16/04:00pm 17.2 17.2 13.7 80 2.0 NNW 6 11 3 6 1015.5 1013.8 1.4
16/03:30pm 18.0 17.8 13.7 76 2.5 NNW 7 11 4 6 1015.3 1013.6 0.8
16/03:00pm 18.6 18.8 13.0 70 3.2 NNW 4 9 2 5 1015.4 1013.7 0.4
16/02:30pm 19.2 20.3 13.4 69 3.4 CALM 0 4 0 2 1015.4 1013.7 0.4
16/02:00pm 18.6 19.1 14.1 75 2.7 NNE 4 11 2 6 1015.7 1013.9 0.4
16/01:30pm 18.9 18.4 12.6 67 3.6 NNW 7 11 4 6 1015.9 1014.1 0.0
16/01:00pm 18.6 18.9 12.1 66 3.7 WSW 2 9 1 5 1015.9 1014.1 0.0
16/12:30pm 18.4 18.7 12.2 67 3.5 SSE 2 7 1 4 1016.0 1014.2 0.0
16/12:00pm 18.0 18.3 12.2 69 3.3 NNE 2 7 1 4 1016.5 1014.7 0.0
16/11:30am 17.8 17.4 12.9 73 2.8 W 7 11 4 6 1016.9 1015.2 0.0
16/11:00am 18.3 17.9 13.0 71 3.1 WNW 7 11 4 6 1016.9 1015.2 0.0
16/10:30am 18.6 18.4 11.9 65 3.8 WNW 4 7 2 4 1016.5 1014.7 0.0

Latest Capital City Observations: Canberra | Sydney | Melbourne | Brisbane | Adelaide | Perth | Hobart | Darwin

Other Formats:

Comma delimited format used in spreadsheet applications
http://www.bom.gov.au/fwo/IDN60903/IDN60903.94925.axf

JavaScript Object Notation format (JSON) in row-major order
http://www.bom.gov.au/fwo/IDN60903/IDN60903.94925.json